Time;durP1;ratioP1;P1;durP2;ratioP2;P2;SDS_P1;SDS_P2;PMS_P1;PMS_P2;Temp;Humidity;BMP_temperature;BMP_pressure;BME280_temperature;BME280_humidity;BME280_pressure;Samples;Min_cycle;Max_cycle;Signal;HPM_P1;HPM_P2
2023/05/13 00:01:20;;;;;;;;;0.75;0.00;;;;;;;;5012106;28;8794;-77
2023/05/13 00:03:46;;;;;;;;;0.00;0.00;;;;;;;;5012158;28;8837;-77
2023/05/13 00:06:11;;;;;;;;;1.75;0.25;;;;;;;;5012012;28;8795;-77
2023/05/13 00:08:36;;;;;;;;;0.00;0.00;;;;;;;;5012099;28;8771;-76
2023/05/13 00:11:02;;;;;;;;;0.00;0.00;;;;;;;;5011965;28;8790;-76
2023/05/13 00:13:27;;;;;;;;;0.00;0.00;;;;;;;;5012071;28;8799;-76
2023/05/13 00:15:52;;;;;;;;;1.00;1.00;;;;;;;;5011830;28;8792;-76
2023/05/13 00:18:17;;;;;;;;;0.00;0.00;;;;;;;;5011880;28;8853;-75
2023/05/13 00:20:43;;;;;;;;;0.00;0.00;;;;;;;;5011918;28;8786;-76
2023/05/13 00:23:08;;;;;;;;;0.50;0.00;;;;;;;;5011814;28;8913;-76
2023/05/13 00:25:34;;;;;;;;;1.75;0.75;;;;;;;;4993941;28;8831;-76
2023/05/13 00:27:59;;;;;;;;;2.50;0.00;;;;;;;;5011579;28;9537;-76
2023/05/13 00:30:25;;;;;;;;;0.00;0.00;;;;;;;;5011401;28;8803;-76
2023/05/13 00:32:50;;;;;;;;;1.00;0.00;;;;;;;;5011505;28;8849;-77
2023/05/13 00:35:16;;;;;;;;;0.00;0.00;;;;;;;;5011931;28;8846;-77
2023/05/13 00:37:41;;;;;;;;;0.00;0.00;;;;;;;;5011379;28;8799;-77
2023/05/13 00:40:13;;;;;;;;;0.00;0.00;;;;;;;;5011507;28;8846;-77
2023/05/13 00:42:38;;;;;;;;;0.00;0.00;;;;;;;;5011428;28;9623;-77
2023/05/13 00:45:04;;;;;;;;;1.00;0.00;;;;;;;;5011382;28;11498;-77
2023/05/13 00:47:29;;;;;;;;;1.00;1.00;;;;;;;;5011289;28;8811;-77
2023/05/13 00:49:54;;;;;;;;;0.00;0.00;;;;;;;;5011194;28;8806;-76
2023/05/13 00:52:20;;;;;;;;;1.00;1.00;;;;;;;;5011232;28;8803;-76
2023/05/13 00:54:45;;;;;;;;;2.00;1.00;;;;;;;;5011077;28;9007;-77
2023/05/13 00:57:10;;;;;;;;;1.00;1.00;;;;;;;;4993415;28;8822;-77
2023/05/13 00:59:36;;;;;;;;;0.00;0.00;;;;;;;;5011196;28;8815;-77
2023/05/13 01:02:07;;;;;;;;;1.00;1.00;;;;;;;;5011029;28;8787;-76
2023/05/13 01:04:41;;;;;;;;;1.00;1.00;;;;;;;;5011050;28;8779;-76
2023/05/13 01:07:06;;;;;;;;;1.00;1.00;;;;;;;;5010937;28;11528;-76
2023/05/13 01:09:34;;;;;;;;;1.25;1.00;;;;;;;;5010947;28;11564;-76
2023/05/13 01:12:14;;;;;;;;;1.00;1.00;;;;;;;;5010888;28;8872;-76
2023/05/13 01:14:44;;;;;;;;;1.50;1.50;;;;;;;;5010879;28;11432;-74
2023/05/13 01:17:23;;;;;;;;;1.25;1.25;;;;;;;;5010707;28;11428;-73
2023/05/13 01:19:51;;;;;;;;;1.25;1.25;;;;;;;;5010824;28;11440;-73
2023/05/13 01:22:16;;;;;;;;;2.00;2.00;;;;;;;;5010661;28;11475;-73
2023/05/13 01:24:42;;;;;;;;;1.50;1.50;;;;;;;;5010549;28;11388;-73
2023/05/13 01:27:07;;;;;;;;;0.00;0.00;;;;;;;;5010884;28;8783;-73
2023/05/13 01:29:33;;;;;;;;;2.00;1.00;;;;;;;;5010867;28;9524;-73
2023/05/13 01:31:59;;;;;;;;;1.00;1.00;;;;;;;;5010771;28;8794;-73
2023/05/13 01:34:26;;;;;;;;;1.00;1.00;;;;;;;;5011061;28;8795;-73
2023/05/13 01:36:51;;;;;;;;;0.50;0.25;;;;;;;;5010480;28;12172;-73
2023/05/13 01:39:18;;;;;;;;;2.00;2.00;;;;;;;;5010661;28;11442;-73
2023/05/13 01:41:43;;;;;;;;;1.00;0.50;;;;;;;;4993115;28;8817;-73
2023/05/13 01:44:09;;;;;;;;;1.75;1.00;;;;;;;;5010558;28;11386;-73
2023/05/13 01:46:34;;;;;;;;;3.00;1.00;;;;;;;;5010515;28;8802;-73
2023/05/13 01:48:59;;;;;;;;;1.00;1.00;;;;;;;;5010630;28;8869;-74
2023/05/13 01:51:25;;;;;;;;;1.75;1.00;;;;;;;;4976691;28;8939;-73
2023/05/13 01:53:50;;;;;;;;;1.00;0.25;;;;;;;;5010699;28;8782;-73
2023/05/13 01:56:15;;;;;;;;;1.00;1.00;;;;;;;;5010456;28;8795;-73
2023/05/13 01:58:41;;;;;;;;;0.00;0.00;;;;;;;;5010581;28;8923;-82
2023/05/13 02:01:06;;;;;;;;;0.25;0.25;;;;;;;;5010645;28;8802;-79
2023/05/13 02:03:32;;;;;;;;;1.75;1.75;;;;;;;;5010539;28;8901;-72
2023/05/13 02:05:57;;;;;;;;;2.50;1.50;;;;;;;;5010326;28;8799;-74
2023/05/13 02:08:24;;;;;;;;;2.75;1.00;;;;;;;;5010377;28;8825;-74
2023/05/13 02:10:58;;;;;;;;;0.25;0.25;;;;;;;;5010509;28;9533;-74
2023/05/13 02:13:24;;;;;;;;;0.25;0.25;;;;;;;;5011002;28;11513;-74
2023/05/13 02:15:49;;;;;;;;;1.00;1.00;;;;;;;;5014058;28;11549;-74
2023/05/13 02:18:14;;;;;;;;;2.00;0.00;;;;;;;;5014047;28;8853;-74
2023/05/13 02:20:40;;;;;;;;;1.00;1.00;;;;;;;;5013920;28;8787;-74
2023/05/13 02:23:06;;;;;;;;;0.25;0.25;;;;;;;;5013993;28;8787;-74
2023/05/13 02:25:31;;;;;;;;;1.00;1.00;;;;;;;;5013875;28;8807;-74
2023/05/13 02:27:56;;;;;;;;;1.00;1.00;;;;;;;;5013877;28;8803;-74
2023/05/13 02:30:25;;;;;;;;;1.00;1.00;;;;;;;;5013841;28;8811;-74
2023/05/13 02:32:51;;;;;;;;;1.50;0.50;;;;;;;;5013833;28;8964;-74
2023/05/13 02:35:16;;;;;;;;;0.75;0.75;;;;;;;;5013932;28;11475;-74
2023/05/13 02:37:42;;;;;;;;;4.25;1.00;;;;;;;;4995913;28;8822;-75
2023/05/13 02:40:07;;;;;;;;;1.00;1.00;;;;;;;;5013676;28;8791;-75
2023/05/13 02:42:33;;;;;;;;;0.75;0.75;;;;;;;;5013452;28;11468;-75
2023/05/13 02:44:58;;;;;;;;;1.00;1.00;;;;;;;;5013571;28;8794;-75
2023/05/13 02:47:24;;;;;;;;;3.00;1.00;;;;;;;;5013570;28;8868;-74
2023/05/13 02:49:49;;;;;;;;;2.75;1.00;;;;;;;;5013431;28;8795;-74
2023/05/13 02:52:15;;;;;;;;;0.00;0.00;;;;;;;;5013398;28;8945;-74
2023/05/13 02:54:40;;;;;;;;;1.00;1.00;;;;;;;;5013551;28;8795;-74
2023/05/13 02:57:05;;;;;;;;;0.00;0.00;;;;;;;;5013314;28;8907;-75
2023/05/13 02:59:30;;;;;;;;;2.00;1.00;;;;;;;;5013315;28;8882;-75
2023/05/13 03:01:56;;;;;;;;;2.00;1.00;;;;;;;;5013297;28;8806;-74
2023/05/13 03:04:21;;;;;;;;;1.00;1.00;;;;;;;;5013059;28;8790;-74
2023/05/13 03:06:47;;;;;;;;;1.25;0.25;;;;;;;;5013127;28;8817;-74
2023/05/13 03:09:12;;;;;;;;;1.00;1.00;;;;;;;;5013005;28;8798;-74
2023/05/13 03:11:37;;;;;;;;;1.00;0.00;;;;;;;;5013215;28;8909;-74
2023/05/13 03:14:02;;;;;;;;;1.00;1.00;;;;;;;;5013131;28;8783;-74
2023/05/13 03:16:28;;;;;;;;;1.00;1.00;;;;;;;;5012795;28;8905;-74
2023/05/13 03:18:53;;;;;;;;;1.00;1.00;;;;;;;;5012824;28;8795;-74
2023/05/13 03:21:18;;;;;;;;;1.00;1.00;;;;;;;;5012898;28;8787;-74
2023/05/13 03:23:44;;;;;;;;;2.00;0.25;;;;;;;;5012845;28;8809;-74
2023/05/13 03:26:09;;;;;;;;;0.50;0.50;;;;;;;;5012812;28;8782;-74
2023/05/13 03:28:34;;;;;;;;;2.00;2.00;;;;;;;;5012751;28;8825;-74
2023/05/13 03:31:00;;;;;;;;;1.00;1.00;;;;;;;;5012714;28;8861;-74
2023/05/13 03:33:25;;;;;;;;;3.50;1.75;;;;;;;;5012829;28;8833;-74
2023/05/13 03:35:50;;;;;;;;;0.25;0.00;;;;;;;;5012708;28;8957;-74
2023/05/13 03:38:16;;;;;;;;;3.00;3.00;;;;;;;;5012579;28;9919;-74
2023/05/13 03:40:41;;;;;;;;;2.00;2.00;;;;;;;;5012284;28;8822;-74
2023/05/13 03:43:06;;;;;;;;;1.75;1.75;;;;;;;;5011776;28;8803;-74
2023/05/13 03:45:31;;;;;;;;;2.25;1.50;;;;;;;;4994729;28;8823;-74
2023/05/13 03:47:57;;;;;;;;;4.25;4.25;;;;;;;;5012298;28;8865;-74
2023/05/13 03:50:22;;;;;;;;;4.75;4.25;;;;;;;;5012296;28;9533;-74
2023/05/13 03:52:47;;;;;;;;;4.25;4.25;;;;;;;;5012303;28;8791;-74
2023/05/13 03:55:13;;;;;;;;;3.00;3.00;;;;;;;;5012123;28;8897;-75
2023/05/13 03:57:40;;;;;;;;;4.00;2.00;;;;;;;;5012152;28;8811;-74
2023/05/13 04:00:06;;;;;;;;;4.00;1.75;;;;;;;;5012091;28;11475;-75
2023/05/13 04:02:31;;;;;;;;;9.50;3.00;;;;;;;;5012091;28;11561;-74
2023/05/13 04:04:56;;;;;;;;;4.00;4.00;;;;;;;;5012005;28;11562;-74
2023/05/13 04:07:22;;;;;;;;;4.75;2.00;;;;;;;;5011825;28;8794;-74
2023/05/13 04:09:47;;;;;;;;;1.00;1.00;;;;;;;;5011942;28;8838;-74
2023/05/13 04:12:13;;;;;;;;;2.00;1.00;;;;;;;;5012137;28;8818;-74
2023/05/13 04:14:38;;;;;;;;;4.75;2.00;;;;;;;;5011909;28;8872;-74
2023/05/13 04:17:04;;;;;;;;;5.50;3.50;;;;;;;;5011668;28;11479;-74
2023/05/13 04:19:29;;;;;;;;;2.00;2.00;;;;;;;;5011701;28;8783;-74
2023/05/13 04:21:54;;;;;;;;;4.00;4.00;;;;;;;;5011756;28;8825;-74
2023/05/13 04:24:20;;;;;;;;;1.00;1.00;;;;;;;;5011637;28;8872;-74
2023/05/13 04:26:45;;;;;;;;;4.00;4.00;;;;;;;;5011669;28;8799;-75
2023/05/13 04:29:10;;;;;;;;;2.00;2.00;;;;;;;;5011721;28;9529;-75
2023/05/13 04:31:36;;;;;;;;;2.00;2.00;;;;;;;;5011541;28;8839;-75
2023/05/13 04:34:01;;;;;;;;;2.50;1.75;;;;;;;;5011429;28;8861;-75
2023/05/13 04:36:26;;;;;;;;;3.00;3.00;;;;;;;;4993600;28;8862;-75
2023/05/13 04:38:51;;;;;;;;;4.00;1.00;;;;;;;;5011419;28;8811;-74
2023/05/13 04:41:17;;;;;;;;;2.00;2.00;;;;;;;;4993662;28;8816;-74
2023/05/13 04:43:42;;;;;;;;;1.00;1.00;;;;;;;;5011303;28;8888;-74
2023/05/13 04:46:07;;;;;;;;;2.00;2.00;;;;;;;;5011214;28;8795;-74
2023/05/13 04:48:32;;;;;;;;;4.00;2.00;;;;;;;;5011203;28;8938;-75
2023/05/13 04:50:58;;;;;;;;;5.75;2.50;;;;;;;;5011222;28;8805;-75
2023/05/13 04:53:23;;;;;;;;;3.50;1.75;;;;;;;;5010614;28;8786;-74
2023/05/13 04:55:49;;;;;;;;;1.00;1.00;;;;;;;;5011064;28;8928;-74
2023/05/13 04:58:14;;;;;;;;;2.00;2.00;;;;;;;;5011096;28;8815;-74
2023/05/13 05:00:40;;;;;;;;;2.50;1.00;;;;;;;;5011096;28;8790;-74
2023/05/13 05:03:05;;;;;;;;;3.50;1.50;;;;;;;;5010955;28;8821;-74
2023/05/13 05:05:30;;;;;;;;;4.00;2.00;;;;;;;;5010959;28;9514;-74
2023/05/13 05:07:55;;;;;;;;;3.00;1.50;;;;;;;;5011200;28;8896;-74
2023/05/13 05:10:21;;;;;;;;;2.00;1.00;;;;;;;;5010862;28;8779;-74
2023/05/13 05:12:46;;;;;;;;;12.50;10.00;;;;;;;;5010889;28;8791;-74
2023/05/13 05:15:14;;;;;;;;;4.00;3.50;;;;;;;;4993164;28;8803;-74
2023/05/13 05:17:43;;;;;;;;;3.50;3.50;;;;;;;;5000824;28;8844;-75
2023/05/13 05:20:09;;;;;;;;;2.00;2.00;;;;;;;;4998524;28;11517;-75
2023/05/13 05:22:35;;;;;;;;;1.25;1.25;;;;;;;;5006354;28;12195;-74
2023/05/13 05:25:01;;;;;;;;;5.50;4.00;;;;;;;;5000357;28;11486;-74
2023/05/13 05:27:26;;;;;;;;;5.50;4.00;;;;;;;;4998436;28;11496;-74
2023/05/13 05:29:55;;;;;;;;;5.00;5.00;;;;;;;;5007091;28;8807;-74
2023/05/13 05:32:20;;;;;;;;;1.25;1.25;;;;;;;;5000231;28;8805;-74
2023/05/13 05:34:45;;;;;;;;;2.50;2.00;;;;;;;;4998303;28;11503;-74
2023/05/13 05:37:10;;;;;;;;;2.00;2.00;;;;;;;;5000333;28;8818;-74
2023/05/13 05:39:36;;;;;;;;;6.00;4.50;;;;;;;;4999339;28;8852;-74
2023/05/13 05:42:01;;;;;;;;;3.50;3.50;;;;;;;;4998823;28;8791;-74
2023/05/13 05:44:27;;;;;;;;;8.25;4.25;;;;;;;;5000295;28;8909;-74
2023/05/13 05:46:52;;;;;;;;;6.50;6.00;;;;;;;;5004427;28;8801;-73
2023/05/13 05:49:17;;;;;;;;;11.00;4.50;;;;;;;;5001777;28;8832;-76
2023/05/13 05:51:44;;;;;;;;;6.50;5.25;;;;;;;;5004918;28;8836;-76
2023/05/13 05:54:09;;;;;;;;;2.00;2.00;;;;;;;;5002881;28;8837;-76
2023/05/13 05:56:34;;;;;;;;;4.25;4.00;;;;;;;;5003928;28;11424;-76
2023/05/13 05:58:59;;;;;;;;;5.00;5.00;;;;;;;;5001511;28;8902;-77
2023/05/13 06:01:25;;;;;;;;;5.00;5.00;;;;;;;;5003366;28;8820;-76
2023/05/13 06:03:50;;;;;;;;;4.00;4.00;;;;;;;;4994926;28;8816;-76
2023/05/13 06:06:15;;;;;;;;;5.25;4.00;;;;;;;;5012583;28;8869;-77
2023/05/13 06:08:41;;;;;;;;;3.00;3.00;;;;;;;;5014242;28;8826;-79
2023/05/13 06:11:06;;;;;;;;;4.25;2.50;;;;;;;;5004880;28;8837;-75
2023/05/13 06:13:31;;;;;;;;;4.25;4.00;;;;;;;;4994647;28;9566;-79
2023/05/13 06:15:56;;;;;;;;;5.00;2.00;;;;;;;;5005286;28;9001;-76
2023/05/13 06:18:22;;;;;;;;;4.00;4.00;;;;;;;;5014002;28;9959;-72
2023/05/13 06:20:47;;;;;;;;;6.25;4.00;;;;;;;;5013817;28;8811;-78
2023/05/13 06:23:13;;;;;;;;;4.00;3.50;;;;;;;;5014047;28;8782;-73
2023/05/13 06:25:39;;;;;;;;;4.00;4.00;;;;;;;;5013993;28;8876;-71
2023/05/13 06:28:05;;;;;;;;;2.75;2.50;;;;;;;;5013727;28;11400;-71
2023/05/13 06:30:30;;;;;;;;;2.00;2.00;;;;;;;;5013824;28;8787;-75
2023/05/13 06:36:15;;;;;;;;;3.50;2.00;;;;;;;;7418361;19;13930;-76
2023/05/13 06:38:40;;;;;;;;;2.50;2.00;;;;;;;;7425744;19;11775;-77
2023/05/13 06:41:05;;;;;;;;;3.00;3.00;;;;;;;;7425552;19;8751;-76
2023/05/13 06:43:31;;;;;;;;;3.00;2.00;;;;;;;;7426189;19;8879;-77
2023/05/13 06:45:56;;;;;;;;;3.00;3.00;;;;;;;;7428161;19;8803;-77
2023/05/13 06:48:21;;;;;;;;;2.00;2.00;;;;;;;;7424930;19;8781;-77
2023/05/13 06:50:48;;;;;;;;;3.00;2.00;;;;;;;;7426635;19;8817;-79
2023/05/13 06:53:14;;;;;;;;;5.00;3.25;;;;;;;;7428078;19;8795;-75
2023/05/13 06:55:40;;;;;;;;;11.00;10.00;;;;;;;;7421054;19;11721;-74
2023/05/13 06:58:09;;;;;;;;;6.25;6.00;;;;;;;;7425002;19;8820;-70
2023/05/13 07:00:38;;;;;;;;;5.00;5.00;;;;;;;;7424324;19;11711;-74
2023/05/13 07:03:04;;;;;;;;;8.50;6.75;;;;;;;;7423451;19;11678;-71
2023/05/13 07:05:31;;;;;;;;;2.00;2.00;;;;;;;;7425064;19;11684;-79
2023/05/13 07:07:56;;;;;;;;;1.00;1.00;;;;;;;;7425197;19;11736;-71
2023/05/13 07:10:21;;;;;;;;;1.75;1.75;;;;;;;;7424447;19;11737;-72
2023/05/13 07:12:46;;;;;;;;;2.00;2.00;;;;;;;;7425338;19;8781;-69
2023/05/13 07:15:12;;;;;;;;;0.00;0.00;;;;;;;;7422837;19;9388;-73
2023/05/13 07:17:37;;;;;;;;;1.00;1.00;;;;;;;;7423178;19;8793;-72
2023/05/13 07:20:02;;;;;;;;;2.75;2.00;;;;;;;;7424751;19;9439;-76
2023/05/13 07:22:27;;;;;;;;;8.25;6.00;;;;;;;;7424501;19;8765;-74
2023/05/13 07:24:53;;;;;;;;;2.00;1.00;;;;;;;;7424164;19;8876;-72
2023/05/13 07:27:19;;;;;;;;;23.50;16.75;;;;;;;;7424452;19;8744;-72
2023/05/13 07:29:44;;;;;;;;;3.25;3.25;;;;;;;;7424231;19;8741;-77
2023/05/13 07:32:09;;;;;;;;;1.00;1.00;;;;;;;;7424640;19;8721;-79
2023/05/13 09:04:50;;;;;;;;;1.00;1.00;;;;;;;;4938407;27;13355;-71
2023/05/13 09:07:16;;;;;;;;;1.25;1.00;;;;;;;;5035127;28;12015;-74
2023/05/13 09:09:41;;;;;;;;;1.00;1.00;;;;;;;;5046306;28;8824;-73
2023/05/13 09:12:06;;;;;;;;;1.67;1.00;;;;;;;;5046096;28;8829;-69
2023/05/13 09:14:32;;;;;;;;;2.33;1.00;;;;;;;;5047031;28;8863;-70
2023/05/13 09:16:57;;;;;;;;;1.00;1.00;;;;;;;;5047742;28;8802;-67
2023/05/13 09:19:23;;;;;;;;;1.00;1.00;;;;;;;;5047774;28;8828;-68
2023/05/13 09:21:48;;;;;;;;;2.00;2.00;;;;;;;;5045988;28;8794;-67
2023/05/13 09:24:17;;;;;;;;;1.00;1.00;;;;;;;;5047706;28;8813;-67
2023/05/13 09:26:43;;;;;;;;;2.00;2.00;;;;;;;;5047467;28;8794;-66
2023/05/13 09:29:15;;;;;;;;;1.00;1.00;;;;;;;;5047526;28;8965;-71
2023/05/13 09:31:40;;;;;;;;;1.33;1.33;;;;;;;;5045768;28;8833;-70
2023/05/13 09:34:05;;;;;;;;;3.00;2.00;;;;;;;;5047349;28;8983;-69
2023/05/13 09:36:31;;;;;;;;;1.00;1.00;;;;;;;;5049059;22;8852;-83
2023/05/13 09:38:57;;;;;;;;;2.00;0.75;;;;;;;;5026648;28;8792;-80
2023/05/13 09:41:24;;;;;;;;;2.00;2.00;;;;;;;;5025106;28;8879;-79
2023/05/13 09:43:49;;;;;;;;;1.25;1.25;;;;;;;;5026122;28;8954;-80
2023/05/13 09:46:15;;;;;;;;;1.33;1.00;;;;;;;;5024958;28;8819;-78
2023/05/13 09:48:42;;;;;;;;;1.00;1.00;;;;;;;;5026859;28;8803;-80
2023/05/13 09:51:07;;;;;;;;;1.00;1.00;;;;;;;;5024899;28;8889;-75
2023/05/13 09:53:33;;;;;;;;;0.33;0.33;;;;;;;;5041224;28;8963;-76
2023/05/13 09:55:59;;;;;;;;;1.00;1.00;;;;;;;;5026364;28;9527;-75
2023/05/13 09:58:27;;;;;;;;;0.00;0.00;;;;;;;;5024844;28;8934;-77
2023/05/13 10:00:52;;;;;;;;;1.00;1.00;;;;;;;;5024281;28;8828;-75
2023/05/13 10:03:17;;;;;;;;;1.00;1.00;;;;;;;;5025853;28;8839;-75
2023/05/13 10:05:43;;;;;;;;;48.50;40.00;;;;;;;;5025929;28;8784;-75
2023/05/13 10:08:10;;;;;;;;;13.00;13.00;;;;;;;;5025939;28;8827;-74
2023/05/13 10:10:36;;;;;;;;;18.00;17.25;;;;;;;;5024090;28;11404;-74
2023/05/13 10:13:07;;;;;;;;;2.00;2.00;;;;;;;;5025923;28;9674;-74
2023/05/13 10:15:39;;;;;;;;;1.00;1.00;;;;;;;;5030655;28;9041;-77
2023/05/13 10:18:05;;;;;;;;;0.00;0.00;;;;;;;;5012569;28;8784;-74
2023/05/13 10:20:30;;;;;;;;;1.00;1.00;;;;;;;;5010554;28;9081;-72
2023/05/13 10:22:55;;;;;;;;;2.00;2.00;;;;;;;;5012386;28;8838;-74
2023/05/13 10:25:21;;;;;;;;;1.00;1.00;;;;;;;;4994792;28;8966;-75
2023/05/13 10:27:47;;;;;;;;;1.00;0.00;;;;;;;;4965596;28;58547;-76
2023/05/13 10:30:12;;;;;;;;;2.00;1.00;;;;;;;;4976980;28;10411;-81
2023/05/13 10:32:38;;;;;;;;;2.00;1.00;;;;;;;;4999280;28;8816;-84
2023/05/13 10:35:07;;;;;;;;;1.25;0.75;;;;;;;;4999343;28;8808;-80
2023/05/13 10:37:51;;;;;;;;;1.00;0.00;;;;;;;;5002271;28;9569;-79
2023/05/13 10:40:52;;;;;;;;;0.50;0.00;;;;;;;;4997835;28;8835;-79
2023/05/13 10:43:18;;;;;;;;;1.00;0.00;;;;;;;;4999407;28;8981;-78
2023/05/13 10:45:46;;;;;;;;;1.00;1.00;;;;;;;;5000512;28;9090;-78
2023/05/13 10:48:12;;;;;;;;;1.33;1.00;;;;;;;;5001562;28;8976;-77
2023/05/13 10:50:40;;;;;;;;;0.00;0.00;;;;;;;;4997683;28;9236;-75
2023/05/13 10:53:07;;;;;;;;;0.67;0.67;;;;;;;;5011320;28;9211;-72
2023/05/13 10:55:38;;;;;;;;;0.33;0.00;;;;;;;;5011903;28;8958;-78
2023/05/13 10:58:08;;;;;;;;;1.00;1.00;;;;;;;;5011642;28;9917;-76
2023/05/13 11:00:34;;;;;;;;;0.67;0.00;;;;;;;;5006363;28;9268;-76
2023/05/13 11:03:26;;;;;;;;;1.00;1.00;;;;;;;;5011684;28;9176;-76
2023/05/13 11:05:59;;;;;;;;;1.00;1.00;;;;;;;;5010471;28;9376;-77
2023/05/13 11:08:38;;;;;;;;;1.00;1.00;;;;;;;;5011226;28;9311;-80
2023/05/13 11:11:16;;;;;;;;;1.00;0.00;;;;;;;;5001117;28;9448;-77
2023/05/13 11:13:41;;;;;;;;;3.33;0.00;;;;;;;;4991874;28;9262;-76
2023/05/13 11:16:09;;;;;;;;;1.67;1.00;;;;;;;;4991800;28;9152;-77
2023/05/13 11:18:35;;;;;;;;;1.00;1.00;;;;;;;;4991904;28;8802;-72
2023/05/13 11:21:02;;;;;;;;;0.00;0.00;;;;;;;;4991988;28;9386;-84
2023/05/13 11:23:27;;;;;;;;;0.00;0.00;;;;;;;;4992634;28;8854;-83
2023/05/13 11:26:09;;;;;;;;;1.33;1.00;;;;;;;;4991644;28;9204;-73
2023/05/13 11:28:53;;;;;;;;;2.33;2.00;;;;;;;;4993599;28;9144;-73
2023/05/13 11:31:20;;;;;;;;;1.00;1.00;;;;;;;;5001030;28;9218;-75
2023/05/13 11:34:04;;;;;;;;;1.00;1.00;;;;;;;;4990612;28;9308;-74
2023/05/13 11:36:30;;;;;;;;;1.00;1.00;;;;;;;;4998019;28;9369;-80
2023/05/13 11:39:03;;;;;;;;;2.00;0.00;;;;;;;;5010749;28;9225;-77
2023/05/13 11:41:32;;;;;;;;;2.00;1.00;;;;;;;;5008462;28;11620;-79
2023/05/13 11:43:58;;;;;;;;;10.25;9.00;;;;;;;;4999543;28;9328;-76
2023/05/13 11:46:24;;;;;;;;;2.75;2.00;;;;;;;;4986964;28;9877;-76
2023/05/13 11:48:50;;;;;;;;;2.50;1.50;;;;;;;;4989062;28;8802;-76
2023/05/13 11:51:18;;;;;;;;;0.00;0.00;;;;;;;;4989102;28;9352;-76
2023/05/13 11:53:43;;;;;;;;;28.75;24.00;;;;;;;;4991316;28;8916;-77
2023/05/13 11:56:12;;;;;;;;;1.00;1.00;;;;;;;;4989762;28;10556;-75
2023/05/13 11:58:37;;;;;;;;;0.00;0.00;;;;;;;;4991239;28;8815;-72
2023/05/13 12:01:02;;;;;;;;;0.00;0.00;;;;;;;;4991186;28;9260;-73
2023/05/13 12:03:28;;;;;;;;;2.00;0.25;;;;;;;;4990908;28;8842;-75
2023/05/13 12:06:02;;;;;;;;;3.00;3.00;;;;;;;;4989764;28;8916;-75
2023/05/13 12:08:28;;;;;;;;;3.00;3.00;;;;;;;;4990882;28;8798;-73
2023/05/13 12:10:54;;;;;;;;;1.33;1.33;;;;;;;;4990947;28;9375;-73
2023/05/13 12:13:19;;;;;;;;;3.50;3.00;;;;;;;;4989371;28;8819;-74
2023/05/13 12:15:45;;;;;;;;;4.25;4.25;;;;;;;;4989074;28;8888;-74
2023/05/13 12:18:11;;;;;;;;;2.00;2.00;;;;;;;;4990550;28;8794;-71
2023/05/13 12:20:37;;;;;;;;;3.00;3.00;;;;;;;;4990561;28;8813;-74
2023/05/13 12:23:03;;;;;;;;;5.00;3.00;;;;;;;;4990418;28;9443;-73
2023/05/13 12:25:31;;;;;;;;;2.50;2.50;;;;;;;;4989584;28;8791;-75
2023/05/13 12:27:57;;;;;;;;;2.33;2.00;;;;;;;;5010173;28;9396;-73
2023/05/13 12:30:23;;;;;;;;;3.00;3.00;;;;;;;;5025232;28;9373;-75
2023/05/13 12:32:48;;;;;;;;;2.00;2.00;;;;;;;;5010207;28;9503;-75
2023/05/13 12:35:13;;;;;;;;;3.75;3.75;;;;;;;;5011021;28;8938;-78
2023/05/13 12:37:39;;;;;;;;;3.00;3.00;;;;;;;;5007622;28;8847;-72
2023/05/13 12:40:07;;;;;;;;;2.00;2.00;;;;;;;;5010053;28;8804;-72
2023/05/13 12:42:33;;;;;;;;;3.00;3.00;;;;;;;;5009930;28;8977;-74
2023/05/13 12:44:59;;;;;;;;;3.00;3.00;;;;;;;;5009947;28;9430;-74
2023/05/13 12:47:24;;;;;;;;;2.00;2.00;;;;;;;;4991906;28;8811;-75
2023/05/13 12:49:50;;;;;;;;;2.67;1.33;;;;;;;;4990256;28;8806;-74
2023/05/13 12:52:15;;;;;;;;;3.00;3.00;;;;;;;;4989003;28;8989;-76
2023/05/13 12:54:41;;;;;;;;;3.00;3.00;;;;;;;;4990183;28;8806;-74
2023/05/13 12:57:09;;;;;;;;;4.00;4.00;;;;;;;;4990349;28;8914;-74
2023/05/13 12:59:34;;;;;;;;;4.00;3.00;;;;;;;;4990145;28;8825;-75
2023/05/13 13:01:59;;;;;;;;;3.00;3.00;;;;;;;;4989943;28;9668;-74
2023/05/13 13:04:25;;;;;;;;;3.50;3.50;;;;;;;;4989858;28;8942;-74
2023/05/13 13:06:50;;;;;;;;;3.50;2.25;;;;;;;;4988400;28;8839;-74
2023/05/13 13:09:15;;;;;;;;;2.75;2.00;;;;;;;;4988737;28;8830;-74
2023/05/13 13:11:41;;;;;;;;;1.50;1.50;;;;;;;;4990097;28;8924;-75
2023/05/13 13:14:07;;;;;;;;;2.00;2.00;;;;;;;;4990277;28;8802;-75
2023/05/13 13:16:32;;;;;;;;;2.00;2.00;;;;;;;;4988846;28;8803;-74
2023/05/13 13:18:59;;;;;;;;;2.00;2.00;;;;;;;;4999108;28;9488;-75
2023/05/13 13:21:24;;;;;;;;;3.00;2.50;;;;;;;;5009693;28;8828;-75
2023/05/13 13:23:49;;;;;;;;;3.00;3.00;;;;;;;;5009661;28;9600;-74
2023/05/13 13:26:14;;;;;;;;;2.00;2.00;;;;;;;;5007704;28;8847;-85
2023/05/13 13:30:26;;;;;;;;;3.00;2.50;;;;;;;;5087812;27;13494;-72
2023/05/13 13:32:51;;;;;;;;;2.00;2.00;;;;;;;;5066271;28;9783;-78
2023/05/13 13:35:16;;;;;;;;;3.50;3.00;;;;;;;;5090845;22;8927;-70
2023/05/13 13:37:41;;;;;;;;;2.00;1.00;;;;;;;;5044750;28;8899;-69
2023/05/13 13:40:07;;;;;;;;;3.00;2.00;;;;;;;;5046279;28;8812;-67
2023/05/13 13:42:32;;;;;;;;;1.00;1.00;;;;;;;;5046620;28;8808;-68
2023/05/13 13:44:58;;;;;;;;;1.00;1.00;;;;;;;;5038186;28;10449;-69
2023/05/13 13:47:23;;;;;;;;;2.50;2.50;;;;;;;;5039453;28;10082;-68
2023/05/13 13:49:48;;;;;;;;;1.25;1.25;;;;;;;;5026064;28;8806;-68
2023/05/13 13:52:13;;;;;;;;;1.00;1.00;;;;;;;;5027067;28;8823;-68
2023/05/13 13:54:39;;;;;;;;;1.25;1.25;;;;;;;;5026735;28;8786;-69
2023/05/13 13:57:04;;;;;;;;;1.75;1.75;;;;;;;;5027211;28;8822;-70
2023/05/13 13:59:29;;;;;;;;;2.00;0.00;;;;;;;;5026742;28;8929;-74
2023/05/13 14:01:55;;;;;;;;;1.00;1.00;;;;;;;;5045866;28;8926;-67
2023/05/13 14:04:22;;;;;;;;;2.50;2.50;;;;;;;;5045377;28;8823;-68
2023/05/13 14:06:48;;;;;;;;;2.50;1.00;;;;;;;;5043180;28;8812;-68
2023/05/13 14:09:13;;;;;;;;;4.50;3.50;;;;;;;;5044789;28;9577;-67
2023/05/13 14:11:39;;;;;;;;;7.00;7.00;;;;;;;;5044429;28;8796;-67
2023/05/13 14:14:04;;;;;;;;;5.50;4.00;;;;;;;;5044605;28;8815;-68
2023/05/13 14:16:29;;;;;;;;;3.00;1.25;;;;;;;;5044121;28;8893;-68
2023/05/13 14:18:54;;;;;;;;;2.00;2.00;;;;;;;;5044373;28;8881;-67
2023/05/13 14:21:20;;;;;;;;;1.00;1.00;;;;;;;;5046568;28;8885;-68
2023/05/13 14:23:45;;;;;;;;;2.50;2.50;;;;;;;;5046375;28;8799;-68
2023/05/13 14:26:13;;;;;;;;;1.00;1.00;;;;;;;;5046166;28;8791;-68
2023/05/13 14:28:39;;;;;;;;;3.50;2.25;;;;;;;;5046405;28;8827;-68
2023/05/13 14:31:04;;;;;;;;;21.75;17.00;;;;;;;;5046397;28;9925;-68
2023/05/13 14:33:29;;;;;;;;;4.00;3.00;;;;;;;;5046283;28;8838;-68
2023/05/13 14:35:55;;;;;;;;;5.00;5.00;;;;;;;;5046323;28;8827;-68
2023/05/13 14:38:21;;;;;;;;;0.25;0.25;;;;;;;;5044616;28;8827;-68
2023/05/13 14:40:46;;;;;;;;;5.00;5.00;;;;;;;;5038489;28;8843;-68
2023/05/13 14:43:11;;;;;;;;;4.25;4.25;;;;;;;;5032868;28;9374;-68
2023/05/13 14:45:36;;;;;;;;;3.50;2.25;;;;;;;;5033038;28;8955;-68
2023/05/13 14:48:02;;;;;;;;;1.00;1.00;;;;;;;;5032682;28;8792;-68
2023/05/13 14:50:27;;;;;;;;;2.50;2.50;;;;;;;;5032226;28;9628;-68
2023/05/13 14:52:53;;;;;;;;;2.75;2.75;;;;;;;;5032663;28;8804;-68
2023/05/13 14:55:18;;;;;;;;;3.00;2.00;;;;;;;;5032549;28;9558;-68
2023/05/13 14:57:44;;;;;;;;;0.75;0.75;;;;;;;;5031373;28;8819;-68
2023/05/13 15:00:11;;;;;;;;;0.75;0.75;;;;;;;;5032581;28;8816;-66
2023/05/13 15:02:36;;;;;;;;;1.00;1.00;;;;;;;;5032546;28;8792;-67
2023/05/13 15:05:01;;;;;;;;;1.00;1.00;;;;;;;;5032410;28;9812;-67
2023/05/13 15:07:27;;;;;;;;;0.00;0.00;;;;;;;;5032097;28;8816;-67
2023/05/13 15:09:52;;;;;;;;;1.00;1.00;;;;;;;;5031994;28;8836;-67
2023/05/13 15:12:18;;;;;;;;;0.00;0.00;;;;;;;;5032403;28;8796;-67
2023/05/13 15:14:49;;;;;;;;;1.00;1.00;;;;;;;;5032047;28;9571;-67
2023/05/13 15:17:15;;;;;;;;;1.00;1.00;;;;;;;;5032313;28;8788;-67
2023/05/13 15:19:40;;;;;;;;;3.00;1.00;;;;;;;;5032002;28;9721;-67
2023/05/13 15:22:05;;;;;;;;;1.00;1.00;;;;;;;;5031901;28;8977;-67
2023/05/13 15:24:31;;;;;;;;;1.00;1.00;;;;;;;;5032105;28;8792;-67
2023/05/13 15:26:56;;;;;;;;;1.00;1.00;;;;;;;;5031547;28;8820;-67
2023/05/13 15:29:21;;;;;;;;;1.75;1.75;;;;;;;;5031765;28;8839;-67
2023/05/13 15:31:49;;;;;;;;;1.00;1.00;;;;;;;;5032114;28;8796;-67
2023/05/13 15:34:15;;;;;;;;;10.00;8.00;;;;;;;;5031958;28;8804;-67
2023/05/13 15:36:40;;;;;;;;;9.25;6.25;;;;;;;;5032036;28;10228;-67
2023/05/13 15:39:05;;;;;;;;;13.00;9.75;;;;;;;;5032000;28;8927;-67
2023/05/13 15:41:31;;;;;;;;;11.50;11.50;;;;;;;;5031951;28;8800;-67
2023/05/13 15:43:56;;;;;;;;;8.25;7.00;;;;;;;;5031481;28;8882;-67
2023/05/13 15:46:22;;;;;;;;;0.75;0.00;;;;;;;;5031375;28;8830;-67
2023/05/13 15:48:48;;;;;;;;;4.00;3.00;;;;;;;;5031573;28;8942;-67
2023/05/13 15:51:13;;;;;;;;;2.50;1.00;;;;;;;;5031273;28;11427;-67
2023/05/13 15:53:39;;;;;;;;;1.00;1.00;;;;;;;;5030738;28;8800;-67
2023/05/13 15:56:04;;;;;;;;;0.50;0.50;;;;;;;;5031432;28;8827;-67
2023/05/13 15:58:30;;;;;;;;;0.25;0.00;;;;;;;;5031611;28;9531;-67
2023/05/13 16:00:56;;;;;;;;;2.75;2.75;;;;;;;;5031070;28;8808;-67
2023/05/13 16:03:21;;;;;;;;;50.00;43.25;;;;;;;;5031665;28;11486;-67
2023/05/13 16:05:46;;;;;;;;;4.00;3.00;;;;;;;;5031154;28;8838;-67
2023/05/13 16:08:11;;;;;;;;;1.00;1.00;;;;;;;;5031221;28;8903;-67
2023/05/13 16:10:37;;;;;;;;;2.00;2.00;;;;;;;;5031321;28;8788;-68
2023/05/13 16:13:02;;;;;;;;;0.00;0.00;;;;;;;;5031385;28;9539;-68
2023/05/13 16:15:28;;;;;;;;;2.25;0.25;;;;;;;;5031272;28;8804;-66
2023/05/13 16:17:53;;;;;;;;;1.25;1.25;;;;;;;;5030717;28;8835;-66
2023/05/13 16:20:19;;;;;;;;;2.00;1.00;;;;;;;;5023028;28;8869;-66
2023/05/13 16:22:44;;;;;;;;;1.00;1.00;;;;;;;;5011172;28;8803;-65